createdAt,value
2018-03-08T00:00:05.675Z,960.56
2018-03-08T00:01:05.586Z,960.70
2018-03-08T00:02:05.752Z,960.78
2018-03-08T00:03:05.030Z,960.67
2018-03-08T00:04:05.688Z,960.80
2018-03-08T00:05:06.745Z,960.80
2018-03-08T00:06:05.726Z,960.67
2018-03-08T00:07:05.389Z,960.76
2018-03-08T00:08:04.924Z,960.94
2018-03-08T00:09:04.971Z,960.89
2018-03-08T00:10:11.202Z,960.76
2018-03-08T00:11:05.596Z,960.78
2018-03-08T00:12:05.390Z,960.70
2018-03-08T00:13:05.567Z,960.89
2018-03-08T00:14:05.413Z,960.86
2018-03-08T00:15:04.957Z,960.83
2018-03-08T00:16:05.857Z,960.78
2018-03-08T00:17:04.952Z,960.83
2018-03-08T00:18:05.734Z,960.95
2018-03-08T00:19:05.472Z,960.83
2018-03-08T00:20:05.448Z,960.86
2018-03-08T00:21:06.666Z,960.83
2018-03-08T00:22:04.958Z,960.76
2018-03-08T00:23:05.051Z,960.78
2018-03-08T00:24:04.868Z,960.68
2018-03-08T00:25:04.943Z,960.73
2018-03-08T00:26:04.938Z,960.78
2018-03-08T00:27:05.572Z,960.73
2018-03-08T00:28:05.377Z,960.76
2018-03-08T00:29:05.254Z,960.68
2018-03-08T00:30:05.010Z,960.73
2018-03-08T00:31:05.697Z,960.62
2018-03-08T00:32:05.489Z,960.67
2018-03-08T00:33:05.906Z,960.73
2018-03-08T00:34:05.550Z,960.70
2018-03-08T00:35:05.782Z,960.83
2018-03-08T00:36:05.432Z,960.73
2018-03-08T00:37:05.379Z,960.80
2018-03-08T00:38:05.720Z,960.78
2018-03-08T00:39:05.311Z,960.76
2018-03-08T00:40:05.049Z,960.73
2018-03-08T00:41:05.936Z,960.67
2018-03-08T00:42:05.274Z,960.86
2018-03-08T00:43:05.061Z,960.73
2018-03-08T00:44:05.618Z,960.86
2018-03-08T00:45:05.565Z,960.88
2018-03-08T00:46:05.400Z,960.94
2018-03-08T00:47:15.040Z,960.83
2018-03-08T00:48:05.746Z,960.85
2018-03-08T00:49:05.751Z,960.67
2018-03-08T00:50:10.765Z,960.80
2018-03-08T00:51:06.043Z,960.83
2018-03-08T00:52:05.040Z,960.80
2018-03-08T00:53:04.935Z,960.88
2018-03-08T00:54:05.564Z,960.96
2018-03-08T00:55:05.393Z,960.80
2018-03-08T00:56:05.001Z,960.75
2018-03-08T00:57:05.682Z,960.96
2018-03-08T00:58:05.315Z,960.85
2018-03-08T00:59:05.305Z,960.94
2018-03-08T01:00:10.106Z,960.94
2018-03-08T01:01:04.950Z,960.99
2018-03-08T01:02:05.696Z,960.96
2018-03-08T01:03:05.527Z,961.07
2018-03-08T01:04:05.394Z,961.05
2018-03-08T01:05:05.210Z,961.02
2018-03-08T01:06:05.118Z,961.02
2018-03-08T01:07:05.486Z,960.93
2018-03-08T01:08:05.293Z,961.02
2018-03-08T01:09:05.140Z,960.91
2018-03-08T01:10:06.458Z,960.99
2018-03-08T01:11:05.761Z,960.96
2018-03-08T01:12:05.373Z,960.99
2018-03-08T01:13:04.948Z,960.96
2018-03-08T01:14:05.221Z,961.02
2018-03-08T01:15:04.834Z,960.85
2018-03-08T01:16:04.935Z,961.19
2018-03-08T01:17:04.965Z,961.05
2018-03-08T01:18:05.237Z,961.05
2018-03-08T01:19:05.099Z,960.99
2018-03-08T01:20:05.164Z,960.97
2018-03-08T01:21:05.213Z,961.08
2018-03-08T01:22:05.324Z,960.97
2018-03-08T01:23:04.980Z,961.11
2018-03-08T01:24:05.765Z,961.05
2018-03-08T01:25:05.232Z,961.08
2018-03-08T01:26:05.184Z,961.14
2018-03-08T01:27:05.081Z,961.08
2018-03-08T01:28:05.606Z,961.11
2018-03-08T01:29:05.801Z,961.05
2018-03-08T01:30:05.536Z,961.05
2018-03-08T01:31:05.123Z,961.08
2018-03-08T01:32:05.542Z,961.08
2018-03-08T01:33:05.416Z,961.08
2018-03-08T01:34:05.147Z,961.08
2018-03-08T01:35:04.765Z,961.22
2018-03-08T01:36:04.918Z,961.13
2018-03-08T01:37:05.165Z,960.97
2018-03-08T01:38:05.221Z,961.05
2018-03-08T01:39:05.600Z,961.08
2018-03-08T01:40:05.661Z,961.13
2018-03-08T01:41:05.217Z,961.19
2018-03-08T01:42:11.225Z,961.11
2018-03-08T01:43:04.937Z,961.05
2018-03-08T01:44:05.716Z,961.16
2018-03-08T01:45:10.609Z,961.08
2018-03-08T01:46:05.103Z,961.13
2018-03-08T01:47:05.262Z,961.19
2018-03-08T01:48:05.323Z,960.99
2018-03-08T01:49:05.615Z,961.05
2018-03-08T01:50:05.971Z,961.10
2018-03-08T01:51:05.412Z,961.19
2018-03-08T01:52:05.102Z,961.08
2018-03-08T01:53:05.102Z,961.08
2018-03-08T01:54:04.863Z,961.10
2018-03-08T01:55:05.370Z,961.13
2018-03-08T01:56:05.593Z,961.02
2018-03-08T01:57:05.086Z,961.02
2018-03-08T01:58:10.802Z,961.05
2018-03-08T01:59:05.070Z,961.08
2018-03-08T02:00:04.933Z,960.96
2018-03-08T02:01:05.574Z,961.02
2018-03-08T02:02:05.618Z,961.02
2018-03-08T02:03:05.525Z,961.19
2018-03-08T02:04:05.264Z,961.22
2018-03-08T02:05:05.112Z,961.08
2018-03-08T02:06:04.993Z,961.13
2018-03-08T02:07:05.720Z,961.22
2018-03-08T02:08:05.415Z,961.16
2018-03-08T02:09:05.058Z,961.13
2018-03-08T02:10:05.468Z,961.22
2018-03-08T02:11:05.140Z,961.10
2018-03-08T02:12:04.949Z,961.10
2018-03-08T02:13:06.143Z,961.27
2018-03-08T02:14:05.765Z,961.25
2018-03-08T02:15:05.614Z,961.25
2018-03-08T02:16:05.566Z,961.19
2018-03-08T02:17:05.229Z,961.27
2018-03-08T02:18:05.108Z,961.33
2018-03-08T02:19:05.014Z,961.38
2018-03-08T02:20:05.671Z,961.21
2018-03-08T02:21:05.583Z,961.38
2018-03-08T02:22:10.556Z,961.38
2018-03-08T02:23:05.408Z,961.30
2018-03-08T02:24:05.092Z,961.27
2018-03-08T02:25:05.032Z,961.27
2018-03-08T02:26:05.650Z,961.33
2018-03-08T02:27:05.637Z,961.38
2018-03-08T02:28:10.470Z,961.35
2018-03-08T02:29:05.358Z,961.49
2018-03-08T02:30:05.338Z,961.41
2018-03-08T02:31:05.443Z,961.33
2018-03-08T02:32:05.557Z,961.39
2018-03-08T02:33:05.506Z,961.36
2018-03-08T02:34:05.103Z,961.36
2018-03-08T02:35:05.591Z,961.41
2018-03-08T02:36:04.947Z,961.39
2018-03-08T02:37:05.039Z,961.41
2018-03-08T02:38:05.698Z,961.33
2018-03-08T02:39:05.137Z,961.36
2018-03-08T02:40:05.235Z,961.41
2018-03-08T02:41:04.895Z,961.41
2018-03-08T02:42:05.191Z,961.50
2018-03-08T02:43:05.609Z,961.47
2018-03-08T02:44:05.890Z,961.58
2018-03-08T02:45:04.948Z,961.61
2018-03-08T02:46:05.876Z,961.56
2018-03-08T02:47:05.089Z,961.61
2018-03-08T02:48:04.787Z,961.50
2018-03-08T02:49:05.480Z,961.56
2018-03-08T02:50:05.365Z,961.44
2018-03-08T02:51:05.479Z,961.50
2018-03-08T02:52:05.537Z,961.50
2018-03-08T02:53:05.675Z,961.42
2018-03-08T02:54:05.492Z,961.61
2018-03-08T02:55:04.791Z,961.56
2018-03-08T02:56:04.998Z,961.56
2018-03-08T02:57:05.180Z,961.47
2018-03-08T02:58:05.287Z,961.55
2018-03-08T02:59:05.291Z,961.53
2018-03-08T03:00:04.802Z,961.53
2018-03-08T03:01:04.867Z,961.64
2018-03-08T03:02:05.007Z,961.58
2018-03-08T03:03:04.883Z,961.70
2018-03-08T03:04:05.103Z,961.58
2018-03-08T03:05:06.032Z,961.64
2018-03-08T03:06:05.790Z,961.53
2018-03-08T03:07:05.636Z,961.70
2018-03-08T03:08:04.918Z,961.70
2018-03-08T03:09:05.773Z,961.56
2018-03-08T03:10:05.560Z,961.64
2018-03-08T03:11:05.167Z,961.67
2018-03-08T03:12:06.032Z,961.78
2018-03-08T03:13:04.986Z,961.81
2018-03-08T03:14:05.791Z,961.75
2018-03-08T03:15:05.660Z,961.72
2018-03-08T03:16:05.590Z,961.67
2018-03-08T03:17:10.895Z,961.64
2018-03-08T03:18:04.972Z,961.78
2018-03-08T03:19:05.143Z,961.70
2018-03-08T03:20:05.665Z,961.75
2018-03-08T03:21:05.322Z,961.78
2018-03-08T03:22:05.002Z,961.72
2018-03-08T03:23:04.919Z,961.78
2018-03-08T03:24:04.982Z,961.75
2018-03-08T03:25:04.975Z,961.75
2018-03-08T03:26:05.646Z,961.70
2018-03-08T03:27:05.710Z,961.92
2018-03-08T03:28:04.980Z,961.83
2018-03-08T03:29:04.877Z,961.89
2018-03-08T03:30:05.732Z,961.92
2018-03-08T03:31:05.662Z,961.78
2018-03-08T03:32:05.156Z,961.78
2018-03-08T03:33:10.255Z,961.78
2018-03-08T03:34:04.970Z,961.81
2018-03-08T03:35:05.066Z,961.83
2018-03-08T03:36:04.997Z,961.84
2018-03-08T03:37:05.718Z,961.92
2018-03-08T03:38:05.854Z,961.81
2018-03-08T03:39:05.882Z,961.81
2018-03-08T03:40:05.449Z,961.72
2018-03-08T03:41:05.332Z,961.89
2018-03-08T03:42:05.079Z,961.75
2018-03-08T03:43:05.001Z,961.86
2018-03-08T03:44:05.357Z,961.92
2018-03-08T03:45:05.099Z,961.84
2018-03-08T03:46:06.423Z,961.87
2018-03-08T03:47:05.447Z,961.87
2018-03-08T03:48:05.591Z,961.75
2018-03-08T03:49:05.017Z,961.84
2018-03-08T03:50:05.100Z,961.92
2018-03-08T03:51:05.692Z,961.75
2018-03-08T03:52:04.984Z,961.95
2018-03-08T03:53:05.000Z,961.84
2018-03-08T03:54:04.795Z,961.90
2018-03-08T03:55:04.838Z,961.87
2018-03-08T03:56:05.132Z,961.87
2018-03-08T03:57:04.823Z,961.84
2018-03-08T03:58:04.867Z,961.93
2018-03-08T03:59:04.915Z,961.98
2018-03-08T04:00:05.724Z,961.84
2018-03-08T04:01:05.022Z,961.98
2018-03-08T04:02:04.832Z,961.87
2018-03-08T04:03:05.474Z,961.93
2018-03-08T04:04:05.306Z,962.04
2018-03-08T04:05:05.455Z,962.04
2018-03-08T04:06:05.262Z,962.07
2018-03-08T04:07:04.819Z,962.01
2018-03-08T04:08:05.426Z,961.98
2018-03-08T04:09:05.582Z,962.18
2018-03-08T04:10:05.324Z,961.96
2018-03-08T04:11:05.190Z,962.07
2018-03-08T04:12:05.032Z,962.20
2018-03-08T04:13:06.194Z,962.18
2018-03-08T04:14:05.334Z,962.12
2018-03-08T04:15:04.992Z,962.22
2018-03-08T04:16:05.320Z,962.04
2018-03-08T04:17:05.413Z,962.01
2018-03-08T04:18:05.518Z,962.15
2018-03-08T04:19:05.163Z,962.18
2018-03-08T04:20:04.827Z,962.31
2018-03-08T04:21:05.671Z,962.18
2018-03-08T04:22:04.942Z,962.15
2018-03-08T04:23:05.281Z,962.07
2018-03-08T04:24:05.444Z,962.22
2018-03-08T04:25:05.396Z,962.15
2018-03-08T04:26:05.468Z,962.07
2018-03-08T04:27:05.496Z,962.22
2018-03-08T04:28:05.423Z,962.18
2018-03-08T04:29:05.165Z,962.18
2018-03-08T04:30:04.847Z,962.34
2018-03-08T04:31:05.740Z,962.34
2018-03-08T04:32:05.305Z,962.29
2018-03-08T04:33:05.218Z,962.43
2018-03-08T04:34:04.870Z,962.43
2018-03-08T04:35:06.982Z,962.48
2018-03-08T04:36:05.460Z,962.53
2018-03-08T04:37:05.250Z,962.53
2018-03-08T04:38:05.587Z,962.48
2018-03-08T04:39:05.660Z,962.53
2018-03-08T04:40:05.117Z,962.43
2018-03-08T04:41:05.944Z,962.56
2018-03-08T04:42:10.686Z,962.64
2018-03-08T04:43:05.286Z,962.56
2018-03-08T04:44:05.114Z,962.56
2018-03-08T04:45:05.723Z,962.53
2018-03-08T04:46:05.792Z,962.53
2018-03-08T04:47:05.574Z,962.53
2018-03-08T04:48:05.161Z,962.64
2018-03-08T04:49:04.952Z,962.70
2018-03-08T04:50:04.856Z,962.62
2018-03-08T04:51:05.072Z,962.70
2018-03-08T04:52:05.219Z,962.64
2018-03-08T04:53:10.303Z,962.59
2018-03-08T04:54:05.484Z,962.70
2018-03-08T04:55:05.052Z,962.67
2018-03-08T04:56:04.954Z,962.76
2018-03-08T04:57:05.667Z,962.81
2018-03-08T04:58:05.004Z,962.59
2018-03-08T04:59:06.027Z,962.64
2018-03-08T05:00:05.252Z,962.76
2018-03-08T05:01:04.774Z,962.62
2018-03-08T05:02:05.642Z,962.70
2018-03-08T05:03:05.280Z,962.70
2018-03-08T05:04:04.947Z,962.73
2018-03-08T05:05:05.572Z,962.78
2018-03-08T05:06:05.341Z,962.78
2018-03-08T05:07:05.578Z,962.87
2018-03-08T05:08:05.586Z,962.84
2018-03-08T05:09:06.581Z,962.64
2018-03-08T05:10:06.481Z,962.84
2018-03-08T05:11:09.890Z,962.70
2018-03-08T05:12:05.151Z,962.67
2018-03-08T05:13:05.720Z,962.84
2018-03-08T05:14:05.461Z,962.76
2018-03-08T05:15:05.233Z,962.87
2018-03-08T05:16:04.895Z,962.73
2018-03-08T05:17:05.013Z,962.76
2018-03-08T05:18:05.747Z,962.98
2018-03-08T05:19:05.460Z,962.76
2018-03-08T05:20:05.316Z,962.98
2018-03-08T05:21:04.881Z,962.81
2018-03-08T05:22:10.721Z,962.87
2018-03-08T05:23:05.428Z,962.92
2018-03-08T05:24:05.314Z,963.01
2018-03-08T05:25:06.166Z,962.81
2018-03-08T05:26:05.215Z,963.01
2018-03-08T05:27:04.977Z,962.90
2018-03-08T05:28:05.408Z,963.04
2018-03-08T05:29:05.166Z,962.84
2018-03-08T05:30:05.847Z,962.84
2018-03-08T05:31:05.570Z,963.04
2018-03-08T05:32:05.271Z,962.98
2018-03-08T05:33:05.403Z,962.95
2018-03-08T05:34:05.412Z,962.93
2018-03-08T05:35:05.603Z,962.90
2018-03-08T05:36:05.395Z,963.10
2018-03-08T05:37:05.560Z,963.10
2018-03-08T05:38:05.394Z,963.10
2018-03-08T05:39:10.174Z,963.07
2018-03-08T05:40:05.170Z,963.10
2018-03-08T05:41:04.874Z,963.10
2018-03-08T05:42:04.828Z,963.10
2018-03-08T05:43:05.754Z,963.16
2018-03-08T05:44:05.435Z,963.27
2018-03-08T05:45:05.696Z,963.10
2018-03-08T05:46:04.852Z,963.13
2018-03-08T05:47:05.069Z,963.02
2018-03-08T05:48:05.685Z,963.24
2018-03-08T05:49:10.992Z,963.10
2018-03-08T05:50:04.963Z,963.21
2018-03-08T05:51:05.816Z,963.24
2018-03-08T05:52:05.696Z,963.27
2018-03-08T05:53:05.433Z,963.24
2018-03-08T05:54:05.374Z,963.19
2018-03-08T05:55:05.045Z,963.36
2018-03-08T05:56:05.045Z,963.36
2018-03-08T05:57:04.818Z,963.33
2018-03-08T05:58:05.546Z,963.33
2018-03-08T05:59:05.232Z,963.41
2018-03-08T06:00:06.716Z,963.41
2018-03-08T06:01:05.668Z,963.47
2018-03-08T06:02:05.598Z,963.52
2018-03-08T06:03:05.118Z,963.36
2018-03-08T06:04:05.526Z,963.44
2018-03-08T06:05:05.582Z,963.58
2018-03-08T06:06:05.631Z,963.50
2018-03-08T06:07:05.736Z,963.58
2018-03-08T06:08:05.162Z,963.58
2018-03-08T06:09:05.140Z,963.64
2018-03-08T06:10:05.173Z,963.78
2018-03-08T06:11:05.095Z,963.75
2018-03-08T06:12:05.174Z,963.75
2018-03-08T06:13:05.553Z,963.61
2018-03-08T06:14:05.545Z,963.81
2018-03-08T06:15:05.672Z,963.67
2018-03-08T06:16:05.826Z,963.83
2018-03-08T06:17:05.418Z,963.72
2018-03-08T06:18:05.308Z,963.84
2018-03-08T06:19:05.565Z,963.81
2018-03-08T06:20:05.481Z,963.81
2018-03-08T06:21:04.961Z,963.81
2018-03-08T06:22:05.261Z,963.81
2018-03-08T06:23:05.380Z,963.86
2018-03-08T06:24:05.379Z,963.81
2018-03-08T06:25:05.729Z,963.86
2018-03-08T06:26:05.652Z,963.86
2018-03-08T06:27:05.728Z,963.81
2018-03-08T06:28:05.645Z,963.94
2018-03-08T06:29:05.268Z,963.91
2018-03-08T06:30:05.264Z,963.93
2018-03-08T06:31:09.891Z,963.86
2018-03-08T06:32:05.638Z,963.96
2018-03-08T06:33:04.860Z,963.93
2018-03-08T06:34:05.151Z,964.07
2018-03-08T06:35:04.986Z,963.99
2018-03-08T06:36:05.751Z,964.02
2018-03-08T06:37:05.289Z,964.07
2018-03-08T06:38:09.894Z,963.99
2018-03-08T06:39:05.716Z,963.89
2018-03-08T06:40:05.791Z,964.07
2018-03-08T06:41:05.701Z,964.15
2018-03-08T06:42:11.060Z,964.10
2018-03-08T06:43:04.818Z,964.04
2018-03-08T06:44:05.500Z,964.24
2018-03-08T06:45:05.192Z,964.10
2018-03-08T06:46:10.253Z,964.15
2018-03-08T06:47:05.170Z,964.04
2018-03-08T06:48:05.036Z,964.21
2018-03-08T06:49:05.146Z,964.29
2018-03-08T06:50:04.876Z,964.21
2018-03-08T06:51:05.748Z,964.12
2018-03-08T06:52:05.375Z,964.26
2018-03-08T06:53:05.308Z,964.25
2018-03-08T06:54:05.506Z,964.19
2018-03-08T06:55:05.618Z,964.41
2018-03-08T06:56:05.303Z,964.29
2018-03-08T06:57:05.291Z,964.31
2018-03-08T06:58:05.107Z,964.30
2018-03-08T06:59:05.543Z,964.23
2018-03-08T07:00:05.110Z,964.50
2018-03-08T07:01:05.763Z,964.35
2018-03-08T07:02:05.089Z,964.40
2018-03-08T07:03:05.084Z,964.45
2018-03-08T07:04:05.161Z,964.47
2018-03-08T07:05:05.132Z,964.40
2018-03-08T07:06:05.107Z,964.42
2018-03-08T07:07:05.744Z,964.47
2018-03-08T07:08:05.578Z,964.55
2018-03-08T07:09:04.852Z,964.57
2018-03-08T07:10:05.186Z,964.48
2018-03-08T07:11:04.999Z,964.51
2018-03-08T07:12:05.300Z,964.55
2018-03-08T07:13:05.569Z,964.72
2018-03-08T07:14:05.644Z,964.66
2018-03-08T07:15:05.016Z,964.71
2018-03-08T07:16:05.324Z,964.68
2018-03-08T07:17:05.430Z,964.70
2018-03-08T07:18:05.074Z,964.72
2018-03-08T07:19:04.970Z,964.58
2018-03-08T07:20:05.339Z,964.63
2018-03-08T07:21:04.881Z,964.54
2018-03-08T07:22:05.751Z,964.57
2018-03-08T07:23:05.853Z,964.79
2018-03-08T07:24:05.522Z,964.61
2018-03-08T07:25:04.835Z,964.72
2018-03-08T07:26:05.241Z,964.69
2018-03-08T07:27:05.304Z,964.77
2018-03-08T07:28:05.207Z,964.69
2018-03-08T07:29:04.908Z,964.55
2018-03-08T07:30:05.320Z,964.74
2018-03-08T07:31:05.330Z,964.74
2018-03-08T07:32:05.622Z,964.80
2018-03-08T07:33:04.815Z,964.84
2018-03-08T07:34:04.865Z,964.77
2018-03-08T07:35:05.634Z,964.87
2018-03-08T07:36:05.224Z,964.84
2018-03-08T07:37:05.000Z,964.76
2018-03-08T07:38:06.061Z,964.95
2018-03-08T07:39:05.375Z,964.84
2018-03-08T07:40:05.201Z,964.95
2018-03-08T07:41:05.362Z,965.12
2018-03-08T07:42:05.091Z,964.89
2018-03-08T07:43:05.168Z,965.00
2018-03-08T07:44:05.697Z,964.95
2018-03-08T07:45:05.489Z,964.98
2018-03-08T07:46:05.744Z,964.98
2018-03-08T07:47:05.334Z,965.12
2018-03-08T07:48:05.416Z,965.04
2018-03-08T07:49:05.013Z,965.04
2018-03-08T07:50:05.694Z,965.01
2018-03-08T07:51:05.715Z,965.04
2018-03-08T07:52:05.464Z,964.93
2018-03-08T07:53:05.286Z,965.01
2018-03-08T07:54:05.164Z,965.04
2018-03-08T07:55:05.825Z,964.96
2018-03-08T07:56:05.610Z,965.10
2018-03-08T07:57:05.604Z,965.12
2018-03-08T07:58:05.200Z,965.27
2018-03-08T07:59:05.044Z,965.18
2018-03-08T08:00:05.740Z,965.23
2018-03-08T08:01:04.833Z,965.12
2018-03-08T08:02:05.581Z,965.23
2018-03-08T08:03:05.760Z,965.26
2018-03-08T08:04:05.431Z,965.20
2018-03-08T08:05:05.197Z,965.15
2018-03-08T08:06:04.956Z,965.32
2018-03-08T08:07:05.672Z,965.34
2018-03-08T08:08:10.469Z,965.43
2018-03-08T08:09:05.286Z,965.29
2018-03-08T08:10:04.891Z,965.34
2018-03-08T08:11:05.282Z,965.29
2018-03-08T08:12:05.089Z,965.31
2018-03-08T08:13:04.862Z,965.48
2018-03-08T08:14:04.842Z,965.51
2018-03-08T08:15:04.796Z,965.53
2018-03-08T08:16:05.658Z,965.39
2018-03-08T08:17:05.086Z,965.47
2018-03-08T08:18:04.980Z,965.55
2018-03-08T08:19:05.063Z,965.58
2018-03-08T08:20:05.232Z,965.46
2018-03-08T08:21:05.876Z,965.57
2018-03-08T08:22:05.423Z,965.52
2018-03-08T08:23:05.517Z,965.48
2018-03-08T08:24:05.519Z,965.54
2018-03-08T08:25:04.959Z,965.57
2018-03-08T08:26:05.885Z,965.59
2018-03-08T08:27:05.527Z,965.59
2018-03-08T08:28:06.760Z,965.60
2018-03-08T08:29:04.781Z,965.54
2018-03-08T08:30:05.069Z,965.62
2018-03-08T08:31:05.458Z,965.65
2018-03-08T08:32:05.809Z,965.59
2018-03-08T08:33:04.837Z,965.72
2018-03-08T08:34:05.405Z,965.61
2018-03-08T08:35:05.638Z,965.73
2018-03-08T08:36:05.725Z,965.62
2018-03-08T08:37:05.598Z,965.52
2018-03-08T08:38:05.030Z,965.69
2018-03-08T08:39:05.035Z,965.75
2018-03-08T08:40:05.737Z,965.57
2018-03-08T08:41:05.848Z,965.62
2018-03-08T08:42:05.483Z,965.62
2018-03-08T08:43:05.043Z,965.62
2018-03-08T08:44:05.774Z,965.62
2018-03-08T08:45:05.326Z,965.82
2018-03-08T08:46:05.066Z,965.77
2018-03-08T08:47:04.946Z,965.71
2018-03-08T08:48:04.873Z,965.70
2018-03-08T08:49:05.731Z,965.84
2018-03-08T08:50:05.063Z,965.67
2018-03-08T08:51:05.336Z,965.75
2018-03-08T08:52:05.375Z,965.72
2018-03-08T08:53:05.803Z,965.86
2018-03-08T08:54:05.746Z,965.63
2018-03-08T08:55:05.665Z,965.86
2018-03-08T08:56:05.342Z,965.74
2018-03-08T08:57:05.693Z,965.82
2018-03-08T08:58:05.532Z,965.90
2018-03-08T08:59:04.955Z,965.99
2018-03-08T09:00:05.112Z,965.90
2018-03-08T09:01:05.300Z,965.85
2018-03-08T09:02:05.012Z,965.93
2018-03-08T09:03:04.865Z,965.88
2018-03-08T09:04:04.852Z,965.94
2018-03-08T09:05:05.156Z,965.91
2018-03-08T09:06:05.097Z,965.91
2018-03-08T09:07:05.471Z,965.86
2018-03-08T09:08:05.566Z,965.97
2018-03-08T09:09:05.485Z,965.94
2018-03-08T09:10:05.366Z,965.97
2018-03-08T09:11:04.808Z,965.89
2018-03-08T09:12:05.162Z,965.98
2018-03-08T09:13:05.136Z,965.78
2018-03-08T09:14:04.868Z,965.89
2018-03-08T09:15:05.944Z,965.78
2018-03-08T09:16:06.759Z,965.77
2018-03-08T09:17:05.550Z,965.77
2018-03-08T09:18:05.444Z,965.91
2018-03-08T09:19:05.069Z,965.82
2018-03-08T09:20:05.822Z,965.84
2018-03-08T09:21:05.588Z,965.79
2018-03-08T09:22:05.495Z,965.87
2018-03-08T09:23:05.646Z,965.87
2018-03-08T09:24:05.133Z,965.75
2018-03-08T09:25:05.311Z,965.78
2018-03-08T09:26:05.523Z,965.83
2018-03-08T09:27:05.440Z,965.72
2018-03-08T09:28:05.286Z,965.80
2018-03-08T09:29:05.145Z,965.80
2018-03-08T09:30:05.021Z,965.85
2018-03-08T09:31:05.170Z,965.74
2018-03-08T09:32:04.814Z,965.79
2018-03-08T09:33:05.774Z,965.73
2018-03-08T09:34:05.185Z,965.62
2018-03-08T09:35:05.169Z,965.70
2018-03-08T09:36:04.936Z,965.67
2018-03-08T09:37:05.061Z,965.61
2018-03-08T09:38:04.934Z,965.64
2018-03-08T09:39:05.356Z,965.78
2018-03-08T09:40:05.352Z,965.78
2018-03-08T09:41:05.173Z,965.74
2018-03-08T09:42:05.057Z,965.66
2018-03-08T09:43:05.710Z,965.71
2018-03-08T09:44:05.401Z,965.74
2018-03-08T09:45:05.439Z,965.68
2018-03-08T09:46:05.613Z,965.65
2018-03-08T09:47:04.965Z,965.55
2018-03-08T09:48:05.115Z,965.60
2018-03-08T09:49:05.679Z,965.60
2018-03-08T09:50:05.221Z,965.81
2018-03-08T09:51:05.506Z,965.64
2018-03-08T09:52:05.349Z,965.56
2018-03-08T09:53:05.342Z,965.64
2018-03-08T09:54:05.589Z,965.63
2018-03-08T09:55:04.821Z,965.60
2018-03-08T09:56:05.401Z,965.63
2018-03-08T09:57:05.037Z,965.63
2018-03-08T09:58:04.767Z,965.65
2018-03-08T09:59:05.964Z,965.68
2018-03-08T10:00:05.039Z,965.60
2018-03-08T10:01:05.487Z,965.52
2018-03-08T10:02:05.595Z,965.65
2018-03-08T10:03:05.450Z,965.57
2018-03-08T10:04:05.546Z,965.64
2018-03-08T10:05:05.397Z,965.61
2018-03-08T10:06:05.631Z,965.72
2018-03-08T10:07:05.192Z,965.64
2018-03-08T10:08:05.382Z,965.63
2018-03-08T10:09:05.408Z,965.63
2018-03-08T10:10:05.238Z,965.77
2018-03-08T10:11:05.724Z,965.58
2018-03-08T10:12:05.329Z,965.69
2018-03-08T10:13:05.275Z,965.77
2018-03-08T10:14:05.147Z,965.63
2018-03-08T10:15:05.079Z,965.63
2018-03-08T10:16:05.096Z,965.58
2018-03-08T10:17:05.398Z,965.62
2018-03-08T10:18:05.610Z,965.68
2018-03-08T10:19:05.094Z,965.70
2018-03-08T10:20:05.024Z,965.79
2018-03-08T10:21:05.693Z,965.81
2018-03-08T10:22:05.730Z,965.81
2018-03-08T10:23:05.555Z,965.75
2018-03-08T10:24:05.793Z,965.75
2018-03-08T10:25:05.757Z,965.89
2018-03-08T10:26:05.646Z,965.75
2018-03-08T10:27:05.781Z,965.95
2018-03-08T10:28:05.635Z,965.78
2018-03-08T10:29:05.286Z,965.83
2018-03-08T10:30:05.755Z,965.75
2018-03-08T10:31:05.562Z,965.67
2018-03-08T10:32:04.810Z,965.81
2018-03-08T10:33:05.566Z,965.76
2018-03-08T10:34:05.428Z,965.81
2018-03-08T10:35:05.548Z,965.62
2018-03-08T10:36:05.086Z,965.90
2018-03-08T10:37:05.530Z,965.79
2018-03-08T10:38:05.115Z,965.88
2018-03-08T10:40:05.138Z,965.79
2018-03-08T10:41:06.319Z,965.85
2018-03-08T10:42:04.847Z,965.76
2018-03-08T10:43:05.724Z,965.87
2018-03-08T10:44:05.650Z,965.84
2018-03-08T10:45:05.880Z,965.87
2018-03-08T10:46:04.967Z,965.86
2018-03-08T10:47:05.036Z,965.83
2018-03-08T10:48:05.801Z,965.94
2018-03-08T10:49:05.554Z,965.89
2018-03-08T10:50:05.644Z,965.91
2018-03-08T10:51:05.781Z,965.91
2018-03-08T10:52:05.600Z,965.97
2018-03-08T10:53:05.758Z,966.11
2018-03-08T10:54:05.643Z,965.91
2018-03-08T10:55:05.575Z,965.89
2018-03-08T10:56:05.214Z,966.06
2018-03-08T10:57:05.299Z,966.03
2018-03-08T10:58:05.245Z,966.07
2018-03-08T10:59:05.548Z,966.04
2018-03-08T11:00:05.655Z,966.01
2018-03-08T11:01:05.168Z,965.98
2018-03-08T11:02:05.993Z,966.07
2018-03-08T11:03:10.028Z,966.05
2018-03-08T11:04:05.698Z,965.96
2018-03-08T11:05:05.794Z,965.83
2018-03-08T11:06:04.990Z,965.97
2018-03-08T11:07:05.155Z,965.91
2018-03-08T11:08:05.068Z,965.91
2018-03-08T11:09:05.014Z,965.77
2018-03-08T11:10:06.515Z,965.80
2018-03-08T11:11:04.899Z,965.85
2018-03-08T11:12:05.792Z,965.80
2018-03-08T11:13:05.131Z,965.96
2018-03-08T11:14:05.249Z,965.93
2018-03-08T11:15:04.873Z,965.87
2018-03-08T11:16:05.267Z,965.93
2018-03-08T11:17:04.998Z,965.81
2018-03-08T11:18:05.156Z,965.78
2018-03-08T11:19:05.294Z,965.75
2018-03-08T11:20:04.985Z,965.78
2018-03-08T11:21:05.297Z,965.93
2018-03-08T11:22:05.012Z,965.73
2018-03-08T11:23:05.560Z,965.74
2018-03-08T11:24:05.101Z,965.77
2018-03-08T11:25:04.903Z,965.82
2018-03-08T11:26:05.077Z,965.77
2018-03-08T11:27:04.806Z,965.65
2018-03-08T11:28:05.357Z,965.82
2018-03-08T11:29:05.084Z,965.57
2018-03-08T11:30:09.908Z,965.70
2018-03-08T11:31:05.386Z,965.56
2018-03-08T11:32:04.833Z,965.59
2018-03-08T11:33:05.704Z,965.63
2018-03-08T11:34:04.843Z,965.60
2018-03-08T11:35:05.028Z,965.63
2018-03-08T11:36:05.120Z,965.53
2018-03-08T11:37:04.855Z,965.56
2018-03-08T11:38:04.868Z,965.53
2018-03-08T11:39:05.693Z,965.53
2018-03-08T11:40:05.648Z,965.39
2018-03-08T11:41:04.810Z,965.53
2018-03-08T11:42:05.501Z,965.64
2018-03-08T11:43:05.378Z,965.53
2018-03-08T11:44:05.726Z,965.36
2018-03-08T11:45:05.762Z,965.45
2018-03-08T11:46:06.950Z,965.45
2018-03-08T11:47:05.223Z,965.34
2018-03-08T11:48:04.794Z,965.39
2018-03-08T11:49:05.798Z,965.33
2018-03-08T11:50:05.774Z,965.50
2018-03-08T11:51:05.494Z,965.44
2018-03-08T11:52:05.488Z,965.26
2018-03-08T11:53:05.654Z,965.40
2018-03-08T11:54:06.774Z,965.34
2018-03-08T11:55:05.840Z,965.42
2018-03-08T11:56:05.540Z,965.39
2018-03-08T11:57:06.756Z,965.27
2018-03-08T11:58:04.978Z,965.24
2018-03-08T11:59:05.583Z,965.38
2018-03-08T12:00:05.830Z,965.17
2018-03-08T12:01:05.186Z,965.29
2018-03-08T12:02:05.032Z,965.28
2018-03-08T12:03:05.697Z,965.37
2018-03-08T12:04:05.745Z,965.40
2018-03-08T12:05:05.386Z,965.28
2018-03-08T12:06:05.022Z,965.20
2018-03-08T12:07:05.782Z,965.37
2018-03-08T12:08:05.061Z,965.40
2018-03-08T12:09:05.733Z,965.23
2018-03-08T12:10:04.947Z,965.31
2018-03-08T12:11:05.237Z,965.26
2018-03-08T12:12:05.413Z,965.26
2018-03-08T12:13:05.098Z,965.37
2018-03-08T12:14:05.131Z,965.31
2018-03-08T12:15:05.290Z,965.39
2018-03-08T12:16:05.378Z,965.50
2018-03-08T12:17:10.293Z,965.44
2018-03-08T12:18:05.284Z,965.42
2018-03-08T12:19:05.053Z,965.44
2018-03-08T12:20:04.836Z,965.47
2018-03-08T12:21:05.417Z,965.39
2018-03-08T12:22:05.232Z,965.41
2018-03-08T12:23:04.886Z,965.30
2018-03-08T12:24:05.031Z,965.21
2018-03-08T12:25:04.931Z,965.38
2018-03-08T12:26:05.079Z,965.36
2018-03-08T12:27:05.263Z,965.36
2018-03-08T12:28:05.764Z,965.22
2018-03-08T12:29:05.790Z,965.45